Time;durP1;ratioP1;P1;durP2;ratioP2;P2;SDS_P1;SDS_P2;PMS_P1;PMS_P2;Temp;Humidity;BMP_temperature;BMP_pressure;BME280_temperature;BME280_humidity;BME280_pressure;Samples;Min_cycle;Max_cycle;Signal;HPM_P1;HPM_P2
2022/12/02 00:00:48;;;;;;;;;;;;;;;8.09;84.03;100228.69;5123478;27;19951;-85
2022/12/02 00:03:16;;;;;;;;;;;;;;;8.09;84.24;100226.91;5117235;27;19912;-84
2022/12/02 00:05:41;;;;;;;;;;;;;;;8.16;84.96;100230.47;5116854;27;19916;-83
2022/12/02 00:08:29;;;;;;;;;;;;;;;8.16;84.09;100233.97;5123646;27;19918;-83
2022/12/02 00:10:56;;;;;;;;;;;;;;;8.20;83.80;100235.75;5131296;27;19915;-83
2022/12/02 00:13:23;;;;;;;;;;;;;;;8.22;83.72;100233.13;5131243;27;19922;-84
2022/12/02 00:15:55;;;;;;;;;;;;;;;8.11;84.64;100233.06;5122056;27;19919;-84
2022/12/02 00:18:21;;;;;;;;;;;;;;;8.23;84.47;100234.84;5115729;27;20377;-84
2022/12/02 00:20:46;;;;;;;;;;;;;;;8.27;84.02;100236.63;5113955;27;19954;-84
2022/12/02 00:23:12;;;;;;;;;;;;;;;8.34;84.40;100240.13;5125455;27;20305;-85
2022/12/02 00:25:37;;;;;;;;;;;;;;;8.27;83.96;100239.25;5112238;28;19987;-84
2022/12/02 00:28:04;;;;;;;;;;;;;;;8.32;83.73;100240.13;5116534;27;20084;-84
2022/12/02 00:30:29;;;;;;;;;;;;;;;8.37;84.36;100246.31;5125640;27;19915;-84
2022/12/02 00:32:55;;;;;;;;;;;;;;;8.43;83.62;100234.91;5133234;27;19915;-83
2022/12/02 00:35:21;;;;;;;;;;;;;;;8.46;83.09;100236.72;5132387;27;19923;-84
2022/12/02 00:37:46;;;;;;;;;;;;;;;8.40;84.00;100234.91;5132993;27;20011;-83
2022/12/02 00:40:12;;;;;;;;;;;;;;;8.41;83.40;100236.66;5133002;27;20385;-82
2022/12/02 00:42:37;;;;;;;;;;;;;;;8.44;83.41;100236.69;5128477;27;19916;-83
2022/12/02 00:47:47;;;;;;;;;;;;;;;8.42;83.65;100231.41;5112403;28;20320;-83
2022/12/02 00:50:12;;;;;;;;;;;;;;;8.40;83.17;100240.16;5127010;27;19915;-82
2022/12/02 00:52:38;;;;;;;;;;;;;;;8.39;83.46;100233.16;5124554;27;19915;-83
2022/12/02 00:55:03;;;;;;;;;;;;;;;8.35;83.38;100232.25;5132881;27;19912;-83
2022/12/02 00:57:28;;;;;;;;;;;;;;;8.37;83.22;100240.16;5132129;27;19912;-83
2022/12/02 00:59:54;;;;;;;;;;;;;;;8.44;83.11;100234.06;5132960;27;19911;-83
2022/12/02 01:02:19;;;;;;;;;;;;;;;8.43;83.55;100232.28;5133268;27;20369;-83
2022/12/02 01:04:44;;;;;;;;;;;;;;;8.31;83.53;100227.00;5114334;27;20400;-83
2022/12/02 01:07:10;;;;;;;;;;;;;;;8.29;83.78;100226.97;5113358;28;19918;-83
2022/12/02 01:09:35;;;;;;;;;;;;;;;8.25;84.06;100225.25;5112831;28;20313;-84
2022/12/02 01:12:01;;;;;;;;;;;;;;;8.27;83.75;100227.88;5112825;28;19960;-84
2022/12/02 01:14:26;;;;;;;;;;;;;;;8.38;83.49;100232.25;5112926;27;20385;-83
2022/12/02 01:16:51;;;;;;;;;;;;;;;8.34;83.65;100227.91;5115966;27;19981;-83
2022/12/02 01:19:17;;;;;;;;;;;;;;;8.37;83.42;100225.28;5099189;28;19923;-83
2022/12/02 01:21:42;;;;;;;;;;;;;;;8.35;83.67;100223.50;5112672;28;20309;-83
2022/12/02 01:24:08;;;;;;;;;;;;;;;8.26;83.51;100216.47;5112994;28;19964;-83
2022/12/02 01:26:33;;;;;;;;;;;;;;;8.21;83.90;100221.69;5112990;28;20010;-86
2022/12/02 01:28:58;;;;;;;;;;;;;;;8.32;83.70;100219.09;5113230;28;19916;-83
2022/12/02 01:31:24;;;;;;;;;;;;;;;8.27;84.11;100212.97;5112532;28;19961;-83
2022/12/02 01:33:49;;;;;;;;;;;;;;;8.15;84.63;100218.19;5112666;28;19915;-83
2022/12/02 01:36:14;;;;;;;;;;;;;;;8.24;84.83;100211.19;5113006;28;20018;-83
2022/12/02 01:38:39;;;;;;;;;;;;;;;8.31;83.96;100219.09;5122767;27;19915;-83
2022/12/02 01:41:05;;;;;;;;;;;;;;;8.23;84.14;100213.81;5132997;27;19915;-83
2022/12/02 01:43:31;;;;;;;;;;;;;;;8.22;84.10;100217.34;5132909;27;20636;-83
2022/12/02 01:45:56;;;;;;;;;;;;;;;8.20;84.89;100214.72;5132424;27;20308;-83
2022/12/02 01:48:22;;;;;;;;;;;;;;;8.23;83.96;100217.34;5132641;27;19915;-84
2022/12/02 01:50:48;;;;;;;;;;;;;;;8.23;84.30;100217.34;5132977;27;20373;-84
2022/12/02 01:53:14;;;;;;;;;;;;;;;8.22;84.20;100207.69;5132493;27;19961;-83
2022/12/02 01:55:39;;;;;;;;;;;;;;;8.23;84.29;100214.72;5112380;27;19939;-84
2022/12/02 01:58:05;;;;;;;;;;;;;;;8.04;84.92;100210.28;5112043;28;20373;-83
2022/12/02 02:00:30;;;;;;;;;;;;;;;8.16;85.02;100205.06;5128304;27;20375;-84
2022/12/02 02:02:55;;;;;;;;;;;;;;;8.13;84.80;100207.66;5132977;27;19923;-83
2022/12/02 02:05:21;;;;;;;;;;;;;;;7.87;85.94;100208.44;5132400;27;20427;-83
2022/12/02 02:07:48;;;;;;;;;;;;;;;7.94;86.03;100205.84;5132685;27;20371;-84
2022/12/02 02:10:14;;;;;;;;;;;;;;;8.03;86.17;100203.25;5132598;27;19921;-84
2022/12/02 02:12:39;;;;;;;;;;;;;;;8.03;85.97;100203.25;5131851;27;19911;-83
2022/12/02 02:15:06;;;;;;;;;;;;;;;8.05;85.21;100202.38;5132793;27;19911;-84
2022/12/02 02:17:32;;;;;;;;;;;;;;;8.11;86.09;100209.44;5132682;27;19915;-83
2022/12/02 02:19:57;;;;;;;;;;;;;;;8.17;84.97;100201.56;5132927;27;19911;-83
2022/12/02 02:22:29;;;;;;;;;;;;;;;8.21;85.11;100197.19;5132091;27;19919;-83
2022/12/02 02:24:55;;;;;;;;;;;;;;;8.12;85.12;100199.78;5131541;27;19926;-84
2022/12/02 02:27:20;;;;;;;;;;;;;;;8.21;84.84;100194.56;5132088;27;19919;-83
2022/12/02 02:29:45;;;;;;;;;;;;;;;8.22;84.93;100198.94;5132674;27;19916;-84
2022/12/02 02:32:11;;;;;;;;;;;;;;;8.27;84.87;100198.97;5131656;28;19915;-83
2022/12/02 02:34:36;;;;;;;;;;;;;;;8.31;84.93;100203.34;5131691;27;19915;-83
2022/12/02 02:37:02;;;;;;;;;;;;;;;8.36;84.80;100201.59;5132387;28;19911;-83
2022/12/02 02:39:27;;;;;;;;;;;;;;;8.26;84.67;100203.31;5131853;28;19951;-83
2022/12/02 02:41:53;;;;;;;;;;;;;;;8.33;84.72;100206.88;5131477;28;19919;-83
2022/12/02 02:44:19;;;;;;;;;;;;;;;8.34;84.36;100206.88;5132139;28;20005;-83
2022/12/02 02:46:44;;;;;;;;;;;;;;;8.39;84.28;100209.50;5113557;28;19907;-83
2022/12/02 02:49:10;;;;;;;;;;;;;;;8.42;84.39;100206.88;5113864;28;19918;-83
2022/12/02 02:51:35;;;;;;;;;;;;;;;8.45;84.05;100206.03;5112553;28;19920;-85
2022/12/02 02:54:00;;;;;;;;;;;;;;;8.42;84.63;100212.13;5111613;28;19915;-83
2022/12/02 02:56:26;;;;;;;;;;;;;;;8.45;83.92;100214.81;5111312;28;19960;-83
2022/12/02 02:58:52;;;;;;;;;;;;;;;8.52;83.60;100211.28;5111442;28;19916;-83
2022/12/02 03:01:24;;;;;;;;;;;;;;;8.51;84.13;100213.91;5111084;28;19922;-83
2022/12/02 03:03:55;;;;;;;;;;;;;;;8.54;84.03;100212.19;5111544;28;19912;-83
2022/12/02 03:06:22;;;;;;;;;;;;;;;8.51;83.90;100220.06;5111528;28;19988;-83
2022/12/02 03:08:48;;;;;;;;;;;;;;;8.42;83.63;100220.03;5111249;28;20377;-83
2022/12/02 03:11:14;;;;;;;;;;;;;;;8.47;84.05;100217.44;5111500;28;19919;-83
2022/12/02 03:13:40;;;;;;;;;;;;;;;8.47;84.39;100226.19;5111235;28;19919;-84
2022/12/02 03:16:09;;;;;;;;;;;;;;;8.48;84.05;100217.44;5093031;28;19915;-84
2022/12/02 03:18:35;;;;;;;;;;;;;;;8.42;84.06;100220.88;5111630;28;20010;-84
2022/12/02 03:21:01;;;;;;;;;;;;;;;8.45;84.21;100216.53;5110027;28;19973;-84
2022/12/02 03:23:27;;;;;;;;;;;;;;;8.54;84.08;100214.81;5110504;28;20366;-84
2022/12/02 03:25:52;;;;;;;;;;;;;;;8.54;83.54;100212.19;5111345;28;19916;-84
2022/12/02 03:28:18;;;;;;;;;;;;;;;8.43;83.82;100224.38;5111606;28;19918;-84
2022/12/02 03:30:43;;;;;;;;;;;;;;;8.40;84.62;100222.66;5111167;28;19916;-84
2022/12/02 03:33:09;;;;;;;;;;;;;;;8.47;84.09;100220.06;5111224;28;19941;-84
2022/12/02 03:35:34;;;;;;;;;;;;;;;8.51;84.15;100224.44;5111205;28;19911;-84
2022/12/02 03:37:59;;;;;;;;;;;;;;;8.45;84.20;100232.31;5110977;28;19911;-84
2022/12/02 03:40:25;;;;;;;;;;;;;;;8.52;84.45;100229.69;5112300;28;20392;-84
2022/12/02 03:42:50;;;;;;;;;;;;;;;8.53;84.07;100220.09;5131546;28;20009;-83
2022/12/02 03:45:16;;;;;;;;;;;;;;;8.58;84.11;100228.84;5132083;27;19918;-83
2022/12/02 03:47:42;;;;;;;;;;;;;;;8.55;83.78;100231.47;5134259;27;19950;-84
2022/12/02 03:50:08;;;;;;;;;;;;;;;8.48;84.18;100229.69;5135320;27;19998;-84
2022/12/02 03:52:33;;;;;;;;;;;;;;;8.49;84.00;100237.59;5135118;27;20431;-84
2022/12/02 03:54:59;;;;;;;;;;;;;;;8.49;84.07;100234.94;5134805;27;20725;-83
2022/12/02 03:57:24;;;;;;;;;;;;;;;8.55;84.14;100240.22;5135001;27;20415;-84
2022/12/02 03:59:49;;;;;;;;;;;;;;;8.40;83.92;100241.06;5135851;27;19911;-83
2022/12/02 04:02:15;;;;;;;;;;;;;;;8.40;83.82;100248.94;5134559;27;20392;-83
2022/12/02 04:04:40;;;;;;;;;;;;;;;8.39;83.97;100246.31;5135152;27;20269;-84
2022/12/02 04:07:05;;;;;;;;;;;;;;;8.38;84.16;100249.81;5116093;27;19911;-85
2022/12/02 04:09:31;;;;;;;;;;;;;;;8.28;84.08;100248.91;5114755;27;19915;-84
2022/12/02 04:11:56;;;;;;;;;;;;;;;8.24;84.63;100257.66;5095605;28;19920;-84
2022/12/02 04:14:21;;;;;;;;;;;;;;;8.15;85.05;100253.22;5114236;28;19918;-85
2022/12/02 04:16:47;;;;;;;;;;;;;;;8.18;85.15;100255.84;5113879;28;19911;-85
2022/12/02 04:19:14;;;;;;;;;;;;;;;8.23;85.18;100258.50;5114070;27;19924;-86
2022/12/02 04:21:39;;;;;;;;;;;;;;;8.30;84.15;100257.66;5114031;28;20009;-85
2022/12/02 04:24:04;;;;;;;;;;;;;;;8.30;84.91;100251.53;5113912;28;20006;-85
2022/12/02 04:26:30;;;;;;;;;;;;;;;8.36;84.03;100256.81;5113566;27;20828;-84
2022/12/02 04:28:55;;;;;;;;;;;;;;;8.31;84.43;100261.16;5113796;28;19920;-83
2022/12/02 04:31:20;;;;;;;;;;;;;;;8.35;84.62;100262.94;5114023;28;20362;-86
2022/12/02 04:33:46;;;;;;;;;;;;;;;8.25;84.57;100251.53;5096139;28;19912;-85
2022/12/02 04:36:11;;;;;;;;;;;;;;;8.23;85.35;100266.38;5113651;28;19911;-87
2022/12/02 04:38:36;;;;;;;;;;;;;;;8.29;85.26;100271.66;5112849;27;20381;-88
2022/12/02 04:41:02;;;;;;;;;;;;;;;8.27;85.36;100269.94;5113431;28;20343;-88
2022/12/02 04:43:27;;;;;;;;;;;;;;;8.22;85.58;100267.28;5113497;28;19918;-88
2022/12/02 04:45:52;;;;;;;;;;;;;;;8.33;84.74;100268.19;5113132;28;19911;-87
2022/12/02 04:48:17;;;;;;;;;;;;;;;8.29;84.36;100269.03;5113419;27;19922;-87
2022/12/02 04:50:43;;;;;;;;;;;;;;;8.37;84.44;100272.59;5114048;27;19950;-88
2022/12/02 04:53:09;;;;;;;;;;;;;;;8.35;84.50;100278.72;5112588;28;20397;-88
2022/12/02 04:55:34;;;;;;;;;;;;;;;8.38;84.87;100284.84;5113513;28;19915;-88
2022/12/02 04:57:59;;;;;;;;;;;;;;;8.35;84.84;100278.72;5112782;28;19911;-88
2022/12/02 05:00:24;;;;;;;;;;;;;;;8.45;84.74;100280.53;5112613;28;20312;-88
2022/12/02 05:02:50;;;;;;;;;;;;;;;8.31;84.81;100288.34;5113208;28;19912;-86
2022/12/02 05:05:15;;;;;;;;;;;;;;;8.34;84.34;100304.13;5112810;28;19927;-86
2022/12/02 05:07:41;;;;;;;;;;;;;;;8.29;85.23;100300.59;5112148;28;19919;-87
2022/12/02 05:10:06;;;;;;;;;;;;;;;8.42;84.40;100301.53;5113717;28;19941;-87
2022/12/02 05:12:32;;;;;;;;;;;;;;;8.52;84.12;100297.19;5113265;27;19935;-87
2022/12/02 05:14:57;;;;;;;;;;;;;;;8.44;84.00;100301.56;5112842;28;20018;-87
2022/12/02 05:17:22;;;;;;;;;;;;;;;8.50;83.83;100305.09;5112865;28;19935;-84
2022/12/02 05:19:48;;;;;;;;;;;;;;;8.40;84.18;100303.25;5112744;28;20319;-88
2022/12/02 05:22:13;;;;;;;;;;;;;;;8.46;84.64;100310.31;5131240;27;19911;-88
2022/12/02 05:24:40;;;;;;;;;;;;;;;8.39;84.00;100305.00;5134089;27;20007;-88
2022/12/02 05:27:05;;;;;;;;;;;;;;;8.40;84.52;100303.25;5098238;27;19920;-88
2022/12/02 05:29:31;;;;;;;;;;;;;;;8.33;84.08;100304.13;5131020;27;20115;-90
2022/12/02 05:31:56;;;;;;;;;;;;;;;8.43;84.62;100311.16;5102847;27;20386;-86
2022/12/02 05:34:21;;;;;;;;;;;;;;;8.46;84.76;100298.03;5132758;27;20001;-84
2022/12/02 05:36:47;;;;;;;;;;;;;;;8.42;84.78;100305.03;5114035;27;20324;-87
2022/12/02 05:39:12;;;;;;;;;;;;;;;8.38;84.42;100302.38;5131164;27;19915;-85
2022/12/02 05:41:37;;;;;;;;;;;;;;;8.37;84.91;100309.41;5132983;27;19925;-86
2022/12/02 05:44:23;;;;;;;;;;;;;;;8.44;84.93;100309.44;5114083;27;19911;-86
2022/12/02 05:46:48;;;;;;;;;;;;;;;8.42;84.70;100325.19;5131130;27;19972;-85
2022/12/02 05:49:18;;;;;;;;;;;;;;;8.42;84.91;100318.16;5120591;27;19924;-85
2022/12/02 05:51:44;;;;;;;;;;;;;;;8.44;84.77;100312.09;5112519;28;20009;-85
2022/12/02 05:54:16;;;;;;;;;;;;;;;8.47;84.85;100309.47;5112040;28;19943;-85
2022/12/02 05:56:41;;;;;;;;;;;;;;;8.49;84.03;100313.84;5093990;28;19912;-86
2022/12/02 05:59:11;;;;;;;;;;;;;;;8.47;84.98;100310.34;5129531;27;19912;-85
2022/12/02 06:01:38;;;;;;;;;;;;;;;8.59;84.01;100317.41;5112026;28;19911;-84
2022/12/02 06:04:05;;;;;;;;;;;;;;;8.63;83.86;100316.50;5120427;27;19915;-85
2022/12/02 06:06:33;;;;;;;;;;;;;;;8.57;84.36;100317.38;5130208;27;20415;-85
2022/12/02 06:08:58;;;;;;;;;;;;;;;8.53;84.72;100317.38;5132072;27;19950;-85
2022/12/02 06:11:33;;;;;;;;;;;;;;;8.61;84.89;100323.53;5132317;27;19960;-86
2022/12/02 06:14:00;;;;;;;;;;;;;;;8.58;84.25;100329.66;5131692;27;19916;-87
2022/12/02 06:16:28;;;;;;;;;;;;;;;8.66;84.63;100323.53;5129840;27;19919;-85
2022/12/02 06:18:53;;;;;;;;;;;;;;;8.57;84.80;100321.75;5132459;27;20014;-85
2022/12/02 06:21:20;;;;;;;;;;;;;;;8.57;85.08;100327.00;5120111;27;20416;-85
2022/12/02 06:23:47;;;;;;;;;;;;;;;8.68;85.50;100332.31;5114343;27;19915;-85
2022/12/02 06:26:16;;;;;;;;;;;;;;;8.72;84.65;100326.19;5131959;27;19915;-85
2022/12/02 06:28:43;;;;;;;;;;;;;;;8.74;84.96;100329.69;5113765;27;20407;-85
2022/12/02 06:31:16;;;;;;;;;;;;;;;8.76;84.63;100330.59;5131765;27;19907;-85
2022/12/02 06:33:42;;;;;;;;;;;;;;;8.77;85.13;100330.59;5132442;28;19911;-85
2022/12/02 06:36:12;;;;;;;;;;;;;;;8.76;85.28;100331.47;5132060;28;20445;-85
2022/12/02 06:38:44;;;;;;;;;;;;;;;8.81;84.75;100339.38;5131932;28;20415;-85
2022/12/02 06:41:11;;;;;;;;;;;;;;;8.70;85.22;100338.47;5131802;28;19958;-85
2022/12/02 06:43:37;;;;;;;;;;;;;;;8.74;85.37;100342.84;5131970;28;19911;-85
2022/12/02 06:46:03;;;;;;;;;;;;;;;8.85;85.14;100342.88;5131578;28;20002;-85
2022/12/02 06:48:39;;;;;;;;;;;;;;;8.90;84.96;100349.03;5132209;28;19912;-85
2022/12/02 06:51:18;;;;;;;;;;;;;;;8.69;85.96;100336.69;5131866;28;20277;-86
2022/12/02 06:53:44;;;;;;;;;;;;;;;8.69;87.27;100342.81;5132463;28;19918;-86
2022/12/02 06:56:10;;;;;;;;;;;;;;;8.85;86.24;100338.50;5132117;28;19918;-86
2022/12/02 06:58:38;;;;;;;;;;;;;;;8.87;86.26;100347.28;5131233;28;20338;-87
2022/12/02 07:01:06;;;;;;;;;;;;;;;8.88;86.29;100348.13;5109937;28;19915;-86
2022/12/02 07:03:35;;;;;;;;;;;;;;;8.90;86.26;100349.03;5120876;28;19933;-88
2022/12/02 07:06:21;;;;;;;;;;;;;;;8.91;86.22;100349.03;5108956;28;19999;-86
2022/12/02 07:08:46;;;;;;;;;;;;;;;9.10;85.67;100351.72;5100425;28;19965;-86
2022/12/02 07:11:17;;;;;;;;;;;;;;;9.06;85.89;100361.34;5110970;28;19907;-85
2022/12/02 07:13:43;;;;;;;;;;;;;;;9.03;85.49;100363.09;5125742;28;19911;-87
2022/12/02 07:16:28;;;;;;;;;;;;;;;8.98;84.79;100363.09;5113622;28;20469;-87
2022/12/02 07:18:53;;;;;;;;;;;;;;;9.19;85.82;100369.25;5123672;28;19930;-87
2022/12/02 07:21:19;;;;;;;;;;;;;;;9.01;86.21;100362.22;5132369;27;19915;-86
2022/12/02 07:23:44;;;;;;;;;;;;;;;9.19;85.39;100370.16;5133851;27;20426;-86
2022/12/02 07:26:10;;;;;;;;;;;;;;;9.11;84.64;100367.50;5135009;27;20373;-87
2022/12/02 07:28:40;;;;;;;;;;;;;;;9.15;84.41;100368.38;5115964;27;19915;-87
2022/12/02 07:31:20;;;;;;;;;;;;;;;9.23;84.30;100366.63;5134892;27;19915;-87
2022/12/02 07:33:45;;;;;;;;;;;;;;;9.26;84.57;100365.75;5135010;27;19993;-87
2022/12/02 07:36:11;;;;;;;;;;;;;;;9.25;84.28;100374.53;5134707;27;20001;-89
2022/12/02 07:38:36;;;;;;;;;;;;;;;9.25;83.77;100378.06;5134186;27;19907;-87
2022/12/02 09:02:23;;;;;;;;;;;;;;;10.34;76.30;100408.75;3439898;28;19991;-77
2022/12/02 09:04:48;;;;;;;;;;;;;;;10.61;76.48;100406.88;5032375;28;19921;-77
2022/12/02 09:07:14;;;;;;;;;;;;;;;10.19;76.34;100401.72;5034670;28;19919;-79
2022/12/02 09:09:39;;;;;;;;;;;;;;;10.56;76.02;100404.25;5041693;28;19916;-79
2022/12/02 09:12:05;;;;;;;;;;;;;;;10.85;76.03;100402.41;5033090;28;19947;-79
2022/12/02 09:14:30;;;;;;;;;;;;;;;10.64;73.14;100396.31;5032296;28;19913;-79
2022/12/02 09:16:55;;;;;;;;;;;;;;;10.80;72.68;100399.78;5032660;28;20390;-77
2022/12/02 09:19:20;;;;;;;;;;;;;;;10.75;75.49;100391.91;5032251;28;19956;-78
2022/12/02 09:21:46;;;;;;;;;;;;;;;11.10;75.17;100387.28;5031913;28;19928;-79
2022/12/02 09:24:11;;;;;;;;;;;;;;;11.35;74.43;100381.84;5032604;28;20428;-79
2022/12/02 09:26:37;;;;;;;;;;;;;;;11.34;72.99;100380.09;5032319;28;19913;-80
2022/12/02 09:29:02;;;;;;;;;;;;;;;11.51;70.67;100380.88;5031966;28;20369;-80
2022/12/02 09:31:28;;;;;;;;;;;;;;;11.26;70.20;100374.84;5032199;28;19996;-80
2022/12/02 09:33:53;;;;;;;;;;;;;;;11.20;71.29;100378.44;5027479;28;19913;-80
2022/12/02 09:36:18;;;;;;;;;;;;;;;11.29;71.50;100381.03;5050442;28;20358;-79
2022/12/02 09:38:43;;;;;;;;;;;;;;;11.41;70.79;100379.16;5033074;28;20302;-80
2022/12/02 09:41:09;;;;;;;;;;;;;;;11.40;72.65;100380.03;5051460;28;19987;-80
2022/12/02 09:43:34;;;;;;;;;;;;;;;11.51;71.83;100374.69;5050472;28;19916;-80
2022/12/02 09:46:00;;;;;;;;;;;;;;;11.38;70.04;100377.41;5050562;28;19963;-80
2022/12/02 09:48:26;;;;;;;;;;;;;;;11.52;70.64;100372.03;5035154;28;19921;-80
2022/12/02 09:50:52;;;;;;;;;;;;;;;11.42;68.77;100373.00;5041142;28;19951;-80
2022/12/02 09:53:17;;;;;;;;;;;;;;;11.21;67.35;100368.75;5050842;28;19932;-80
2022/12/02 09:55:43;;;;;;;;;;;;;;;11.26;68.44;100370.47;5050035;28;19916;-76
2022/12/02 09:58:13;;;;;;;;;;;;;;;11.26;69.86;100370.47;5046198;28;19963;-76
2022/12/02 10:00:39;;;;;;;;;;;;;;;11.38;71.41;100365.97;5042345;28;19956;-77
2022/12/02 10:03:05;;;;;;;;;;;;;;;11.38;70.32;100365.97;5043195;28;19963;-77
2022/12/02 10:05:31;;;;;;;;;;;;;;;11.17;70.00;100367.91;5038372;28;20612;-77
2022/12/02 10:07:58;;;;;;;;;;;;;;;11.43;69.91;100366.81;5049514;28;20373;-77
2022/12/02 10:10:25;;;;;;;;;;;;;;;11.00;68.38;100369.75;5049322;28;19947;-77
2022/12/02 10:12:51;;;;;;;;;;;;;;;11.41;69.71;100363.31;5040716;28;19967;-77
2022/12/02 10:15:19;;;;;;;;;;;;;;;11.45;68.33;100362.41;5034116;28;19920;-77
2022/12/02 10:17:45;;;;;;;;;;;;;;;11.29;68.70;100362.53;5042731;28;19913;-77
2022/12/02 10:20:18;;;;;;;;;;;;;;;11.45;67.44;100371.22;5043536;28;19961;-78
2022/12/02 10:23:06;;;;;;;;;;;;;;;11.17;69.36;100367.00;5031665;28;20309;-78
2022/12/02 10:25:33;;;;;;;;;;;;;;;11.34;69.42;100366.88;5035464;28;19916;-76
2022/12/02 10:27:58;;;;;;;;;;;;;;;11.44;66.56;100365.94;5050118;28;19913;-77
2022/12/02 10:30:25;;;;;;;;;;;;;;;11.41;65.94;100363.31;5037261;28;19916;-76
2022/12/02 10:33:12;;;;;;;;;;;;;;;11.32;65.95;100364.25;5047100;28;19913;-77
2022/12/02 10:35:47;;;;;;;;;;;;;;;11.74;67.84;100359.53;5048325;28;19916;-76
2022/12/02 10:38:32;;;;;;;;;;;;;;;11.57;69.38;100350.84;5041962;28;19917;-77
2022/12/02 10:41:13;;;;;;;;;;;;;;;11.78;67.23;100358.59;5043963;28;19912;-77
2022/12/02 10:43:39;;;;;;;;;;;;;;;11.76;67.61;100354.22;5026640;28;20373;-77
2022/12/02 10:46:04;;;;;;;;;;;;;;;11.85;66.65;100353.25;5046925;28;19916;-76
2022/12/02 10:48:29;;;;;;;;;;;;;;;11.84;67.40;100352.38;5048679;28;19924;-78
2022/12/02 10:50:55;;;;;;;;;;;;;;;12.09;65.38;100355.66;5049100;28;19960;-78
2022/12/02 10:53:25;;;;;;;;;;;;;;;11.97;66.62;100353.16;5049300;28;19990;-76
2022/12/02 10:55:50;;;;;;;;;;;;;;;12.24;66.07;100348.47;5016181;28;19921;-78
2022/12/02 10:58:20;;;;;;;;;;;;;;;12.02;65.02;100350.47;5048733;28;20457;-78
2022/12/02 11:00:46;;;;;;;;;;;;;;;11.92;65.03;100353.19;5054647;28;19916;-78
2022/12/02 11:03:11;;;;;;;;;;;;;;;12.20;64.14;100346.75;5054058;28;19917;-78
2022/12/02 11:05:39;;;;;;;;;;;;;;;11.88;64.59;100347.91;5054551;28;20405;-77
2022/12/02 11:08:06;;;;;;;;;;;;;;;11.80;65.20;100354.19;5054096;28;19912;-76
2022/12/02 11:10:41;;;;;;;;;;;;;;;11.93;64.85;100356.75;5051355;28;19916;-76
2022/12/02 11:13:12;;;;;;;;;;;;;;;12.00;63.32;100348.72;5052736;28;19917;-77
2022/12/02 11:15:51;;;;;;;;;;;;;;;11.96;63.19;100346.13;5053485;28;20003;-76
2022/12/02 11:18:28;;;;;;;;;;;;;;;12.04;62.47;100349.56;5053541;28;20011;-76
2022/12/02 11:20:54;;;;;;;;;;;;;;;11.89;62.27;100353.19;5054367;28;19920;-77
2022/12/02 11:23:27;;;;;;;;;;;;;;;11.85;63.29;100346.22;5053927;28;19916;-77
2022/12/02 11:25:54;;;;;;;;;;;;;;;11.93;63.88;100351.44;5050133;28;20401;-76
2022/12/02 11:28:28;;;;;;;;;;;;;;;11.98;62.96;100349.63;5033780;28;19921;-77
2022/12/02 11:31:08;;;;;;;;;;;;;;;11.52;65.08;100348.25;5038754;28;19913;-77
2022/12/02 11:33:43;;;;;;;;;;;;;;;12.01;63.56;100352.25;5051673;28;19968;-77
2022/12/02 11:36:08;;;;;;;;;;;;;;;11.97;63.06;100347.88;5052550;28;19916;-77
2022/12/02 11:38:57;;;;;;;;;;;;;;;11.90;63.10;100354.09;5051114;28;19973;-78
2022/12/02 11:41:27;;;;;;;;;;;;;;;11.90;64.04;100346.16;5037157;28;19912;-77
2022/12/02 11:43:58;;;;;;;;;;;;;;;11.80;62.16;100351.53;5052158;28;19912;-77
2022/12/02 11:46:42;;;;;;;;;;;;;;;11.59;61.53;100352.59;5050101;28;19920;-77
2022/12/02 11:49:25;;;;;;;;;;;;;;;11.78;61.79;100352.44;5039356;28;19923;-78
2022/12/02 11:51:58;;;;;;;;;;;;;;;11.97;61.52;100354.06;5052271;28;20301;-78
2022/12/02 11:54:24;;;;;;;;;;;;;;;12.12;61.49;100349.47;5047333;28;19916;-78
2022/12/02 11:56:52;;;;;;;;;;;;;;;12.29;60.76;100350.16;5040530;28;20446;-78
2022/12/02 11:59:22;;;;;;;;;;;;;;;12.27;62.41;100354.59;5032220;28;19913;-78
2022/12/02 12:01:47;;;;;;;;;;;;;;;12.30;62.30;100356.34;5038367;28;20382;-78
2022/12/02 12:04:26;;;;;;;;;;;;;;;12.06;64.23;100360.13;5042486;28;19921;-78
2022/12/02 12:06:53;;;;;;;;;;;;;;;12.26;62.70;100359.91;5035913;28;19925;-77
2022/12/02 12:09:18;;;;;;;;;;;;;;;12.13;61.80;100360.03;5051659;28;19924;-77
2022/12/02 12:11:43;;;;;;;;;;;;;;;12.14;62.38;100355.63;5047461;28;19921;-79
2022/12/02 12:14:11;;;;;;;;;;;;;;;12.20;61.82;100358.19;5046735;28;19927;-76
2022/12/02 12:16:41;;;;;;;;;;;;;;;12.32;61.51;100360.69;5034849;28;19924;-78
2022/12/02 12:19:14;;;;;;;;;;;;;;;12.53;60.45;100361.34;5052956;28;19917;-78
2022/12/02 12:21:44;;;;;;;;;;;;;;;12.50;60.40;100364.03;5052584;28;21952;-78
2022/12/02 12:24:25;;;;;;;;;;;;;;;12.27;60.38;100365.19;5052769;28;19931;-78
2022/12/02 12:26:57;;;;;;;;;;;;;;;11.98;61.34;100366.34;5049951;28;19916;-78
2022/12/02 12:29:24;;;;;;;;;;;;;;;12.03;62.03;100366.31;5051467;28;19919;-78
2022/12/02 12:31:50;;;;;;;;;;;;;;;12.12;61.63;100354.78;5051305;28;19917;-78
2022/12/02 12:34:15;;;;;;;;;;;;;;;12.10;61.68;100356.56;5045812;28;19917;-77
2022/12/02 12:36:41;;;;;;;;;;;;;;;11.83;62.16;100359.44;5051002;28;19962;-77
2022/12/02 12:39:08;;;;;;;;;;;;;;;11.89;62.90;100368.19;5033014;28;19971;-77
2022/12/02 12:41:33;;;;;;;;;;;;;;;11.88;62.23;100369.06;5051408;28;20451;-77
2022/12/02 12:43:58;;;;;;;;;;;;;;;11.99;61.49;100370.75;5052313;28;19917;-77
2022/12/02 12:46:24;;;;;;;;;;;;;;;11.96;60.90;100375.22;5051984;28;19916;-77
2022/12/02 12:48:49;;;;;;;;;;;;;;;12.02;60.72;100372.50;5050607;28;19916;-78
2022/12/02 12:51:15;;;;;;;;;;;;;;;12.12;61.58;100376.78;5051788;28;20386;-78
2022/12/02 12:53:40;;;;;;;;;;;;;;;12.35;63.09;100380.97;5033626;28;20051;-78
2022/12/02 12:56:06;;;;;;;;;;;;;;;12.30;60.33;100383.66;5047022;28;19917;-77
2022/12/02 12:58:31;;;;;;;;;;;;;;;12.45;61.18;100385.28;5051672;28;20146;-77
2022/12/02 13:00:56;;;;;;;;;;;;;;;12.64;60.73;100383.25;5045076;28;19920;-77
2022/12/02 13:03:21;;;;;;;;;;;;;;;12.81;60.16;100377.75;5047344;28;19916;-77
2022/12/02 13:05:47;;;;;;;;;;;;;;;12.86;61.24;100373.25;5031354;28;19940;-78
2022/12/02 13:08:12;;;;;;;;;;;;;;;13.08;60.17;100380.91;5031860;28;19913;-78
2022/12/02 13:10:37;;;;;;;;;;;;;;;13.06;60.06;100380.94;5031443;28;19959;-78
2022/12/02 13:13:03;;;;;;;;;;;;;;;13.05;58.98;100391.53;5050795;28;19978;-78
2022/12/02 13:15:28;;;;;;;;;;;;;;;12.85;60.45;100382.13;5051416;28;20336;-78
2022/12/02 13:17:54;;;;;;;;;;;;;;;12.82;60.33;100386.56;5050715;28;19924;-80
2022/12/02 13:20:19;;;;;;;;;;;;;;;12.71;62.05;100384.94;5050474;28;19920;-80
2022/12/02 13:22:44;;;;;;;;;;;;;;;12.79;60.27;100391.91;5046953;28;19916;-79
2022/12/02 13:25:10;;;;;;;;;;;;;;;12.76;60.87;100381.34;5046937;28;20275;-79
2022/12/02 13:27:35;;;;;;;;;;;;;;;12.74;60.18;100376.06;5050965;28;19917;-79
2022/12/02 13:30:01;;;;;;;;;;;;;;;12.62;61.46;100386.81;5051310;28;20003;-78
2022/12/02 13:32:26;;;;;;;;;;;;;;;12.70;60.55;100387.63;5051153;28;20390;-78
2022/12/02 13:34:51;;;;;;;;;;;;;;;12.52;61.89;100383.41;5038188;28;19920;-77
2022/12/02 13:37:18;;;;;;;;;;;;;;;12.48;61.99;100392.28;5044223;28;19921;-78
2022/12/02 13:39:43;;;;;;;;;;;;;;;12.50;61.74;100391.38;5048145;28;19920;-78
2022/12/02 13:42:08;;;;;;;;;;;;;;;12.57;61.28;100391.28;5050665;28;19916;-78
2022/12/02 13:44:36;;;;;;;;;;;;;;;12.42;62.10;100393.25;5049822;28;19964;-79
2022/12/02 13:47:02;;;;;;;;;;;;;;;12.52;61.28;100394.88;5051250;28;20432;-79
2022/12/02 13:49:27;;;;;;;;;;;;;;;12.44;61.48;100403.81;5050974;28;19947;-78
2022/12/02 13:51:52;;;;;;;;;;;;;;;12.39;61.85;100403.84;5050999;28;19916;-79
2022/12/02 13:54:18;;;;;;;;;;;;;;;12.13;61.98;100407.66;5037953;28;20003;-79
2022/12/02 13:56:43;;;;;;;;;;;;;;;11.96;63.98;100405.16;5039180;28;19923;-79
2022/12/02 13:59:08;;;;;;;;;;;;;;;11.83;63.77;100403.47;5031931;28;19950;-78
2022/12/02 14:01:33;;;;;;;;;;;;;;;11.90;64.18;100399.91;5050968;28;19975;-78
2022/12/02 14:03:59;;;;;;;;;;;;;;;11.87;64.80;100405.22;5051091;28;20035;-79
2022/12/02 14:06:24;;;;;;;;;;;;;;;11.84;65.16;100410.53;5032827;28;19962;-79